createdAt,value
2019-01-10T00:00:42.604Z,100479.04
2019-01-10T00:03:10.365Z,100475.19
2019-01-10T00:05:38.132Z,100483.00
2019-01-10T00:08:05.890Z,100483.33
2019-01-10T00:10:33.826Z,100485.34
2019-01-10T00:13:01.564Z,100482.67
2019-01-10T00:15:29.387Z,100492.14
2019-01-10T00:17:57.137Z,100490.81
2019-01-10T00:20:24.908Z,100491.14
2019-01-10T00:22:52.782Z,100499.28
2019-01-10T00:25:20.561Z,100500.63
2019-01-10T00:27:48.461Z,100498.50
2019-01-10T00:30:17.370Z,100503.65
2019-01-10T00:32:45.498Z,100501.45
2019-01-10T00:35:13.696Z,100508.45
2019-01-10T00:37:54.883Z,100515.09
2019-01-10T00:40:22.671Z,100519.60
2019-01-10T00:42:50.446Z,100526.87
2019-01-10T00:45:18.200Z,100529.42
2019-01-10T00:47:46.467Z,100539.05
2019-01-10T00:50:17.325Z,100539.89
2019-01-10T00:52:45.821Z,100546.02
2019-01-10T00:55:13.766Z,100554.52
2019-01-10T00:57:41.774Z,100549.01
2019-01-10T01:00:15.803Z,100555.53
2019-01-10T01:02:43.674Z,100556.50
2019-01-10T01:05:12.986Z,100560.16
2019-01-10T01:07:40.806Z,100557.83
2019-01-10T01:10:12.815Z,100559.67
2019-01-10T01:12:40.550Z,100573.27
2019-01-10T01:15:10.830Z,100575.27
2019-01-10T01:17:38.747Z,100585.39
2019-01-10T01:20:08.081Z,100581.44
2019-01-10T01:22:36.005Z,100585.42
2019-01-10T01:25:04.889Z,100598.72
2019-01-10T01:27:32.822Z,100601.70
2019-01-10T01:30:00.687Z,100604.23
2019-01-10T01:32:28.605Z,100608.19
2019-01-10T01:34:56.353Z,100609.87
2019-01-10T01:37:24.308Z,100603.20
2019-01-10T01:39:52.353Z,100610.69
2019-01-10T01:42:20.145Z,100611.02
2019-01-10T01:44:48.069Z,100619.99
2019-01-10T01:47:15.837Z,100628.66
2019-01-10T01:49:43.755Z,100627.52
2019-01-10T01:52:11.699Z,100632.32
2019-01-10T01:54:39.482Z,100637.96
2019-01-10T01:57:07.379Z,100642.95
2019-01-10T01:59:35.268Z,100643.97
2019-01-10T02:02:03.113Z,100650.61
2019-01-10T02:04:31.023Z,100649.28
2019-01-10T02:06:59.401Z,100659.08
2019-01-10T02:09:27.114Z,100660.89
2019-01-10T02:11:54.992Z,100654.08
2019-01-10T02:14:22.716Z,100654.61
2019-01-10T02:16:50.467Z,100662.91
2019-01-10T02:19:18.189Z,100662.21
2019-01-10T02:21:46.042Z,100668.02
2019-01-10T02:24:13.988Z,100670.67
2019-01-10T02:26:41.752Z,100674.30
2019-01-10T02:29:09.667Z,100679.89
2019-01-10T02:31:37.447Z,100680.09
2019-01-10T02:34:05.311Z,100689.31
2019-01-10T02:36:33.074Z,100688.34
2019-01-10T02:39:00.821Z,100693.98
2019-01-10T02:41:28.617Z,100692.17
2019-01-10T02:43:56.377Z,100691.70
2019-01-10T02:46:24.114Z,100691.02
2019-01-10T02:48:52.026Z,100697.08
2019-01-10T02:51:19.764Z,100707.54
2019-01-10T02:53:47.512Z,100699.20
2019-01-10T02:56:15.239Z,100703.02
2019-01-10T02:58:43.216Z,100708.19
2019-01-10T03:01:11.000Z,100711.05
2019-01-10T03:03:38.895Z,100710.52
2019-01-10T03:06:06.756Z,100720.14
2019-01-10T03:08:34.554Z,100711.97
2019-01-10T03:11:02.449Z,100714.41
2019-01-10T03:13:36.405Z,100726.52
2019-01-10T03:16:00.369Z,100721.95
2019-01-10T03:18:31.712Z,100725.19
2019-01-10T03:20:59.413Z,100728.69
2019-01-10T03:23:27.316Z,100730.03
2019-01-10T03:25:55.578Z,100727.89
2019-01-10T03:28:23.801Z,100730.34
2019-01-10T03:30:51.869Z,100729.97
2019-01-10T03:33:20.050Z,100728.33
2019-01-10T03:35:47.883Z,100724.39
2019-01-10T03:38:15.837Z,100730.97
2019-01-10T03:40:43.610Z,100732.45
2019-01-10T03:43:11.375Z,100733.64
2019-01-10T03:45:39.254Z,100732.78
2019-01-10T03:48:07.005Z,100746.06
2019-01-10T03:50:34.750Z,100740.69
2019-01-10T03:53:02.500Z,100739.20
2019-01-10T03:55:30.227Z,100737.67
2019-01-10T03:57:58.007Z,100738.19
2019-01-10T04:00:25.751Z,100739.52
2019-01-10T04:02:53.569Z,100746.36
2019-01-10T04:05:21.299Z,100739.41
2019-01-10T04:07:49.271Z,100750.97
2019-01-10T04:10:17.672Z,100744.88
2019-01-10T04:12:45.483Z,100755.32
2019-01-10T04:15:14.063Z,100756.05
2019-01-10T04:17:41.907Z,100758.38
2019-01-10T04:20:11.394Z,100765.96
2019-01-10T04:22:39.157Z,100763.21
2019-01-10T04:25:07.434Z,100777.20
2019-01-10T04:27:35.155Z,100770.81
2019-01-10T04:30:04.721Z,100775.26
2019-01-10T04:32:32.816Z,100776.34
2019-01-10T04:35:00.611Z,100782.47
2019-01-10T04:37:28.348Z,100789.63
2019-01-10T04:39:56.251Z,100779.16
2019-01-10T04:42:24.038Z,100777.83
2019-01-10T04:44:51.837Z,100782.63
2019-01-10T04:47:19.734Z,100790.65
2019-01-10T04:49:47.516Z,100793.45
2019-01-10T04:52:15.403Z,100796.59
2019-01-10T04:54:43.390Z,100793.09
2019-01-10T04:57:11.124Z,100797.92
2019-01-10T04:59:38.913Z,100802.20
2019-01-10T05:02:06.936Z,100805.98
2019-01-10T05:04:34.946Z,100809.54
2019-01-10T05:07:02.999Z,100808.48
2019-01-10T05:09:30.952Z,100809.23
2019-01-10T05:11:58.851Z,100807.84
2019-01-10T05:14:26.625Z,100811.02
2019-01-10T05:16:54.489Z,100806.91
2019-01-10T05:19:22.285Z,100814.64
2019-01-10T05:21:52.842Z,100818.62
2019-01-10T05:24:20.609Z,100823.29
2019-01-10T05:26:51.032Z,100818.31
2019-01-10T05:29:18.998Z,100826.64
2019-01-10T05:31:46.789Z,100830.66
2019-01-10T05:34:14.589Z,100832.20
2019-01-10T05:36:42.517Z,100835.72
2019-01-10T05:39:10.345Z,100840.84
2019-01-10T05:41:38.363Z,100833.52
2019-01-10T05:44:06.217Z,100836.86
2019-01-10T05:46:34.199Z,100847.31
2019-01-10T05:49:01.986Z,100849.63
2019-01-10T05:51:29.800Z,100850.34
2019-01-10T05:53:57.597Z,100856.75
2019-01-10T05:56:25.410Z,100861.14
2019-01-10T05:58:53.212Z,100861.17
2019-01-10T06:01:21.163Z,100863.30
2019-01-10T06:03:53.422Z,100869.09
2019-01-10T06:06:18.621Z,100866.52
2019-01-10T06:08:46.399Z,100879.72
2019-01-10T06:11:14.403Z,100885.88
2019-01-10T06:13:42.202Z,100885.88
2019-01-10T06:16:10.040Z,100892.72
2019-01-10T06:18:37.857Z,100893.54
2019-01-10T06:21:05.685Z,100897.04
2019-01-10T06:23:33.468Z,100900.09
2019-01-10T06:26:01.230Z,100901.80
2019-01-10T06:28:29.023Z,100904.86
2019-01-10T06:30:56.828Z,100914.66
2019-01-10T06:33:24.617Z,100913.52
2019-01-10T06:35:52.462Z,100922.37
2019-01-10T06:38:20.227Z,100921.52
2019-01-10T06:40:48.034Z,100925.02
2019-01-10T06:43:15.954Z,100919.86
2019-01-10T06:45:43.747Z,100927.01
2019-01-10T06:48:11.553Z,100923.22
2019-01-10T06:50:39.352Z,100933.35
2019-01-10T06:53:07.293Z,100935.67
2019-01-10T06:55:35.064Z,100943.78
2019-01-10T06:58:02.978Z,100949.56
2019-01-10T07:00:30.747Z,100961.38
2019-01-10T07:02:58.696Z,100964.45
2019-01-10T07:05:26.456Z,100964.45
2019-01-10T07:07:56.662Z,100971.11
2019-01-10T07:10:29.284Z,100972.06
2019-01-10T07:12:57.470Z,100974.38
2019-01-10T07:15:25.205Z,100979.32
2019-01-10T07:17:53.274Z,100981.35
2019-01-10T07:20:21.067Z,100987.70
2019-01-10T07:22:50.636Z,100990.50
2019-01-10T07:25:18.390Z,100996.31
2019-01-10T07:27:46.149Z,100999.17
2019-01-10T07:30:20.883Z,101005.44
2019-01-10T07:32:48.653Z,101007.89
2019-01-10T07:35:16.427Z,101004.88
2019-01-10T07:37:53.349Z,101008.38
2019-01-10T07:40:21.130Z,101007.84
2019-01-10T07:42:48.882Z,101013.91
2019-01-10T07:45:23.581Z,101017.23
2019-01-10T07:47:51.354Z,101016.13
2019-01-10T07:50:31.523Z,101023.33
2019-01-10T07:52:59.331Z,101025.50
2019-01-10T07:55:27.099Z,101030.10
2019-01-10T07:57:54.863Z,101034.64
2019-01-10T08:00:22.608Z,101031.77
2019-01-10T08:02:50.531Z,101036.93
2019-01-10T08:05:18.294Z,101035.06
2019-01-10T08:07:46.111Z,101041.98
2019-01-10T08:10:16.647Z,101041.70
2019-01-10T08:12:44.400Z,101049.09
2019-01-10T08:15:16.568Z,101056.16
2019-01-10T08:17:44.487Z,101058.05
2019-01-10T08:20:12.756Z,101059.23
2019-01-10T08:22:41.869Z,101062.84
2019-01-10T08:25:12.357Z,101069.27
2019-01-10T08:27:40.255Z,101064.73
2019-01-10T08:30:17.745Z,101071.45
2019-01-10T08:32:45.651Z,101072.02
2019-01-10T08:35:15.477Z,101069.86
2019-01-10T08:37:43.379Z,101077.74
2019-01-10T08:40:11.185Z,101067.11
2019-01-10T08:42:38.960Z,101072.77
2019-01-10T08:45:07.996Z,101078.15
2019-01-10T08:47:35.765Z,101078.29
2019-01-10T08:50:05.968Z,101070.11
2019-01-10T08:52:33.718Z,101082.55
2019-01-10T08:55:01.494Z,101079.91
2019-01-10T08:57:29.276Z,101075.98
2019-01-10T08:59:57.066Z,101075.83
2019-01-10T09:02:24.811Z,101087.22
2019-01-10T09:04:52.576Z,101088.70
2019-01-10T09:07:20.400Z,101088.28
2019-01-10T09:09:48.428Z,101098.43
2019-01-10T09:12:16.926Z,101094.52
2019-01-10T09:14:44.700Z,101101.07
2019-01-10T09:17:12.830Z,101116.23
2019-01-10T09:19:41.663Z,101115.34
2019-01-10T09:22:09.449Z,101121.13
2019-01-10T09:24:37.192Z,101127.70
2019-01-10T09:27:04.985Z,101124.33
2019-01-10T09:29:32.767Z,101128.59
2019-01-10T09:32:03.013Z,101133.08
2019-01-10T09:34:30.756Z,101135.73
2019-01-10T09:36:58.536Z,101134.30
2019-01-10T09:39:26.361Z,101135.17
2019-01-10T09:41:54.161Z,101143.98
2019-01-10T09:44:21.887Z,101138.90
2019-01-10T09:46:49.687Z,101143.59
2019-01-10T09:49:17.485Z,101145.25
2019-01-10T09:51:45.245Z,101149.72
2019-01-10T09:54:12.977Z,101159.59
2019-01-10T09:56:43.049Z,101153.57
2019-01-10T09:59:10.837Z,101161.73
2019-01-10T10:01:38.639Z,101157.69
2019-01-10T10:04:06.387Z,101160.34
2019-01-10T10:06:34.176Z,101160.48
2019-01-10T10:09:02.067Z,101164.33
2019-01-10T10:11:34.218Z,101162.86
2019-01-10T10:13:59.475Z,101166.44
2019-01-10T10:16:27.265Z,101168.45
2019-01-10T10:18:55.103Z,101165.93
2019-01-10T10:21:22.850Z,101161.49
2019-01-10T10:23:50.583Z,101166.63
2019-01-10T10:26:18.602Z,101163.25
2019-01-10T10:28:46.371Z,101163.59
2019-01-10T10:31:14.124Z,101156.32
2019-01-10T10:33:44.482Z,101165.28
2019-01-10T10:36:12.292Z,101160.48
2019-01-10T10:38:40.032Z,101160.94
2019-01-10T10:41:10.003Z,101162.60
2019-01-10T10:43:37.756Z,101162.06
2019-01-10T10:46:05.571Z,101163.25
2019-01-10T10:48:33.334Z,101170.22
2019-01-10T10:51:01.132Z,101175.55
2019-01-10T10:53:28.934Z,101170.45
2019-01-10T10:55:56.714Z,101168.06
2019-01-10T10:58:25.892Z,101170.91
2019-01-10T11:00:53.681Z,101172.09
2019-01-10T11:03:21.430Z,101170.58
2019-01-10T11:05:49.278Z,101171.02
2019-01-10T11:08:17.912Z,101164.00
2019-01-10T11:10:45.670Z,101166.47
2019-01-10T11:13:13.434Z,101160.09
2019-01-10T11:15:42.794Z,101158.58
2019-01-10T11:18:10.660Z,101162.94
2019-01-10T11:20:39.216Z,101157.21
2019-01-10T11:23:10.877Z,101163.71
2019-01-10T11:25:36.628Z,101162.86
2019-01-10T11:28:04.767Z,101156.70
2019-01-10T11:30:32.499Z,101161.12
2019-01-10T11:33:00.279Z,101165.04
2019-01-10T11:35:28.043Z,101156.95
2019-01-10T11:37:55.906Z,101158.17
2019-01-10T11:40:23.643Z,101158.06
2019-01-10T11:42:51.524Z,101159.24
2019-01-10T11:45:25.445Z,101154.95
2019-01-10T11:47:53.213Z,101152.67
2019-01-10T11:50:21.094Z,101145.94
2019-01-10T11:52:49.238Z,101145.97
2019-01-10T11:55:17.335Z,101146.66
2019-01-10T11:57:45.410Z,101145.44
2019-01-10T12:00:18.185Z,101144.82
2019-01-10T12:02:45.975Z,101141.91
2019-01-10T12:05:14.005Z,101145.69
2019-01-10T12:07:41.904Z,101151.83
2019-01-10T12:10:09.860Z,101151.35
2019-01-10T12:12:37.620Z,101148.01
2019-01-10T12:15:06.365Z,101155.69
2019-01-10T12:17:34.304Z,101150.58
2019-01-10T12:20:02.559Z,101146.23
2019-01-10T12:22:30.399Z,101152.61
2019-01-10T12:24:58.247Z,101150.26
2019-01-10T12:27:26.076Z,101152.25
2019-01-10T12:29:53.839Z,101157.57
2019-01-10T12:32:21.586Z,101155.56
2019-01-10T12:34:49.336Z,101161.08
2019-01-10T12:37:17.066Z,101153.59
2019-01-10T12:39:44.856Z,101155.00
2019-01-10T12:42:12.585Z,101158.61
2019-01-10T12:44:40.397Z,101161.79
2019-01-10T12:47:08.189Z,101159.23
2019-01-10T12:49:35.952Z,101153.61
2019-01-10T12:52:03.766Z,101153.03
2019-01-10T12:54:31.532Z,101153.44
2019-01-10T12:56:59.599Z,101151.10
2019-01-10T12:59:28.486Z,101151.41
2019-01-10T13:01:56.422Z,101156.66
2019-01-10T13:04:24.191Z,101158.09
2019-01-10T13:06:52.010Z,101162.11
2019-01-10T13:09:19.875Z,101164.92
2019-01-10T13:11:47.654Z,101162.47
2019-01-10T13:14:15.417Z,101162.50
2019-01-10T13:16:47.063Z,101166.31
2019-01-10T13:19:12.873Z,101174.06
2019-01-10T13:21:40.592Z,101167.55
2019-01-10T13:24:08.395Z,101170.34
2019-01-10T13:26:36.119Z,101169.92
2019-01-10T13:29:04.047Z,101159.58
2019-01-10T13:31:31.830Z,101165.45
2019-01-10T13:33:59.582Z,101165.03
2019-01-10T13:36:27.341Z,101168.67
2019-01-10T13:38:55.106Z,101165.02
2019-01-10T13:41:22.977Z,101167.31
2019-01-10T13:43:50.752Z,101166.19
2019-01-10T13:46:18.745Z,101168.39
2019-01-10T13:48:51.449Z,101174.62
2019-01-10T13:51:16.172Z,101168.56
2019-01-10T13:53:44.036Z,101177.15
2019-01-10T13:56:11.823Z,101176.03
2019-01-10T13:58:39.622Z,101180.20
2019-01-10T14:03:35.149Z,101171.98
2019-01-10T14:06:04.087Z,101175.73
2019-01-10T14:08:37.168Z,101178.94
2019-01-10T14:11:01.533Z,101178.78
2019-01-10T14:13:29.291Z,101187.55
2019-01-10T14:15:57.096Z,101178.91
2019-01-10T14:18:24.870Z,101176.45
2019-01-10T14:20:52.662Z,101181.10
2019-01-10T14:23:20.763Z,101183.34
2019-01-10T14:25:48.869Z,101185.86
2019-01-10T14:28:16.631Z,101186.42
2019-01-10T14:30:44.689Z,101193.34
2019-01-10T14:33:13.529Z,101182.18
2019-01-10T14:35:41.582Z,101198.40
2019-01-10T14:38:09.786Z,101195.50
2019-01-10T14:40:37.659Z,101200.53
2019-01-10T14:43:05.485Z,101200.20
2019-01-10T14:45:36.290Z,101199.48
2019-01-10T14:48:04.630Z,101197.45
2019-01-10T14:50:34.944Z,101198.38
2019-01-10T14:53:03.593Z,101205.02
2019-01-10T14:55:31.567Z,101204.32
2019-01-10T14:57:59.406Z,101208.26
2019-01-10T15:00:27.221Z,101209.65
2019-01-10T15:02:55.023Z,101219.14
2019-01-10T15:05:22.778Z,101220.55
2019-01-10T15:07:50.723Z,101217.00
2019-01-10T15:10:18.897Z,101215.23
2019-01-10T15:12:47.708Z,101223.13
2019-01-10T15:15:20.964Z,101220.42
2019-01-10T15:17:49.223Z,101224.23
2019-01-10T15:20:29.360Z,101222.43
2019-01-10T15:22:57.145Z,101226.72
2019-01-10T15:25:24.871Z,101220.53
2019-01-10T15:27:52.660Z,101230.40
2019-01-10T15:30:23.113Z,101229.44
2019-01-10T15:32:50.943Z,101229.30
2019-01-10T15:35:18.810Z,101226.36
2019-01-10T15:37:46.612Z,101231.53
2019-01-10T15:40:18.648Z,101230.36
2019-01-10T15:42:46.433Z,101232.99
2019-01-10T15:45:16.682Z,101231.89
2019-01-10T15:47:44.724Z,101240.17
2019-01-10T15:50:15.539Z,101242.97
2019-01-10T15:52:43.951Z,101242.74
2019-01-10T15:55:14.648Z,101248.00
2019-01-10T15:57:42.476Z,101249.56
2019-01-10T16:00:15.033Z,101254.06
2019-01-10T16:02:42.782Z,101252.93
2019-01-10T16:05:10.659Z,101251.75
2019-01-10T16:07:38.448Z,101260.58
2019-01-10T16:10:07.908Z,101259.28
2019-01-10T16:12:35.719Z,101265.27
2019-01-10T16:15:05.471Z,101267.12
2019-01-10T16:17:33.270Z,101263.36
2019-01-10T16:20:01.291Z,101271.18
2019-01-10T16:22:29.057Z,101266.91
2019-01-10T16:24:57.007Z,101271.94
2019-01-10T16:27:24.839Z,101269.00
2019-01-10T16:29:53.604Z,101270.86
2019-01-10T16:32:21.481Z,101262.28
2019-01-10T16:34:52.460Z,101268.39
2019-01-10T16:37:26.522Z,101267.64
2019-01-10T16:39:54.311Z,101271.81
2019-01-10T16:42:22.114Z,101265.55
2019-01-10T16:44:49.896Z,101270.38
2019-01-10T16:47:17.662Z,101266.20
2019-01-10T16:49:45.460Z,101266.50
2019-01-10T16:52:13.178Z,101268.77
2019-01-10T16:54:40.986Z,101264.37
2019-01-10T16:57:08.873Z,101272.61
2019-01-10T16:59:37.651Z,101274.28
2019-01-10T17:02:05.462Z,101268.02
2019-01-10T17:04:33.255Z,101270.30
2019-01-10T17:07:01.052Z,101271.67
2019-01-10T17:09:28.829Z,101274.84
2019-01-10T17:11:56.635Z,101266.88
2019-01-10T17:14:24.410Z,101265.64
2019-01-10T17:16:52.145Z,101279.59
2019-01-10T17:19:20.281Z,101275.80
2019-01-10T17:21:48.042Z,101276.12
2019-01-10T17:24:15.837Z,101273.48
2019-01-10T17:26:43.660Z,101275.31
2019-01-10T17:29:11.425Z,101270.91
2019-01-10T17:31:39.171Z,101276.22
2019-01-10T17:34:06.969Z,101273.70
2019-01-10T17:36:34.738Z,101283.77
2019-01-10T17:39:05.734Z,101285.01
2019-01-10T17:41:33.499Z,101285.99
2019-01-10T17:44:01.332Z,101289.98
2019-01-10T17:46:29.074Z,101293.59
2019-01-10T17:48:56.793Z,101294.91
2019-01-10T17:51:26.681Z,101303.52
2019-01-10T17:53:54.573Z,101298.70
2019-01-10T17:56:22.432Z,101290.41
2019-01-10T17:58:50.239Z,101289.27
2019-01-10T18:01:18.146Z,101289.27
2019-01-10T18:03:45.961Z,101292.97
2019-01-10T18:06:13.877Z,101283.99
2019-01-10T18:08:41.824Z,101286.51
2019-01-10T18:11:09.559Z,101283.00
2019-01-10T18:13:37.308Z,101291.45
2019-01-10T18:16:05.261Z,101287.08
2019-01-10T18:18:33.064Z,101285.18
2019-01-10T18:21:00.829Z,101285.04
2019-01-10T18:23:28.641Z,101281.88
2019-01-10T18:25:56.446Z,101281.88
2019-01-10T18:28:24.511Z,101291.40
2019-01-10T18:30:52.644Z,101294.34
2019-01-10T18:33:20.615Z,101290.83
2019-01-10T18:35:48.380Z,101287.64
2019-01-10T18:38:16.511Z,101282.27
2019-01-10T18:40:44.256Z,101288.34
2019-01-10T18:43:12.015Z,101295.39
2019-01-10T18:45:39.775Z,101292.19
2019-01-10T18:48:07.574Z,101295.19
2019-01-10T18:50:35.345Z,101300.03
2019-01-10T18:53:03.638Z,101305.54
2019-01-10T18:55:31.528Z,101304.97
2019-01-10T18:57:59.348Z,101311.48
2019-01-10T19:00:30.664Z,101311.00
2019-01-10T19:02:59.684Z,101308.20
2019-01-10T19:05:29.125Z,101305.77
2019-01-10T19:07:56.899Z,101315.13
2019-01-10T19:10:24.748Z,101311.20
2019-01-10T19:12:52.649Z,101316.98
2019-01-10T19:15:20.607Z,101306.02
2019-01-10T19:17:48.377Z,101310.44
2019-01-10T19:20:25.211Z,101318.22
2019-01-10T19:22:53.951Z,101316.13
2019-01-10T19:25:21.918Z,101317.88
2019-01-10T19:27:49.734Z,101309.34
2019-01-10T19:30:21.257Z,101311.10
2019-01-10T19:32:49.155Z,101320.06
2019-01-10T19:35:16.926Z,101317.12
2019-01-10T19:37:44.728Z,101319.88
2019-01-10T19:40:15.993Z,101321.83
2019-01-10T19:42:43.784Z,101318.41
2019-01-10T19:45:13.504Z,101328.05
2019-01-10T19:47:41.345Z,101327.03
2019-01-10T19:50:13.497Z,101323.91
2019-01-10T19:52:41.285Z,101330.93
2019-01-10T19:55:10.106Z,101326.85
2019-01-10T19:57:37.919Z,101317.12
2019-01-10T20:00:14.844Z,101315.66
2019-01-10T20:02:42.637Z,101315.80
2019-01-10T20:05:10.932Z,101312.71
2019-01-10T20:07:38.773Z,101309.00
2019-01-10T20:10:08.180Z,101318.74
2019-01-10T20:12:35.929Z,101322.20
2019-01-10T20:15:04.687Z,101321.68
2019-01-10T20:17:32.476Z,101318.59
2019-01-10T20:20:00.291Z,101317.03
2019-01-10T20:22:28.645Z,101320.06
2019-01-10T20:24:56.966Z,101317.41
2019-01-10T20:27:24.824Z,101318.45
2019-01-10T20:29:52.567Z,101315.75
2019-01-10T20:32:20.454Z,101314.47
2019-01-10T20:34:48.153Z,101320.10
2019-01-10T20:37:16.374Z,101322.89
2019-01-10T20:39:44.206Z,101319.62
2019-01-10T20:42:12.909Z,101323.00
2019-01-10T20:44:40.708Z,101322.48
2019-01-10T20:47:09.144Z,101314.22
2019-01-10T20:49:37.094Z,101323.66
2019-01-10T20:52:05.333Z,101319.30
2019-01-10T20:54:33.137Z,101314.55
2019-01-10T20:57:00.850Z,101318.67
2019-01-10T20:59:28.704Z,101319.91
2019-01-10T21:01:56.728Z,101312.50
2019-01-10T21:04:25.079Z,101310.42
2019-01-10T21:06:52.851Z,101311.74
2019-01-10T21:09:20.632Z,101312.17
2019-01-10T21:11:48.437Z,101307.30
2019-01-10T21:14:16.225Z,101312.27
2019-01-10T21:16:43.971Z,101316.44
2019-01-10T21:19:11.760Z,101318.55
2019-01-10T21:21:39.496Z,101316.75
2019-01-10T21:24:07.312Z,101314.37
2019-01-10T21:26:35.151Z,101316.27
2019-01-10T21:29:03.245Z,101313.84
2019-01-10T21:31:30.965Z,101315.47
2019-01-10T21:33:58.777Z,101306.59
2019-01-10T21:36:26.672Z,101314.36
2019-01-10T21:38:54.492Z,101315.55
2019-01-10T21:41:22.238Z,101315.41
2019-01-10T21:43:49.985Z,101321.87
2019-01-10T21:46:17.771Z,101315.66
2019-01-10T21:48:45.551Z,101312.66
2019-01-10T21:51:13.311Z,101310.29
2019-01-10T21:53:41.035Z,101306.41
2019-01-10T21:56:09.251Z,101309.02
2019-01-10T21:58:37.053Z,101314.38
2019-01-10T22:01:05.030Z,101313.12
2019-01-10T22:03:32.930Z,101313.56
2019-01-10T22:06:00.699Z,101310.47
2019-01-10T22:08:28.469Z,101306.69
2019-01-10T22:10:56.339Z,101315.37
2019-01-10T22:13:24.086Z,101318.13
2019-01-10T22:15:51.860Z,101307.06
2019-01-10T22:18:19.607Z,101315.23
2019-01-10T22:20:47.414Z,101318.13
2019-01-10T22:23:15.154Z,101316.64
2019-01-10T22:25:43.181Z,101308.88
2019-01-10T22:28:10.933Z,101312.09
2019-01-10T22:30:38.718Z,101312.91
2019-01-10T22:33:07.654Z,101310.09
2019-01-10T22:35:35.659Z,101305.24
2019-01-10T22:38:03.442Z,101306.84
2019-01-10T22:40:31.328Z,101306.30
2019-01-10T22:42:59.366Z,101301.80
2019-01-10T22:45:27.150Z,101308.16
2019-01-10T22:47:54.939Z,101304.59
2019-01-10T22:50:24.618Z,101303.04
2019-01-10T22:52:52.414Z,101314.56
2019-01-10T22:55:20.424Z,101312.09
2019-01-10T22:57:48.139Z,101305.36
2019-01-10T23:01:34.061Z,101306.64
2019-01-10T23:04:02.153Z,101303.64
2019-01-10T23:06:30.207Z,101303.36
2019-01-10T23:09:01.892Z,101300.48
2019-01-10T23:11:30.239Z,101299.94
2019-01-10T23:14:02.541Z,101291.26
2019-01-10T23:16:32.117Z,101297.19
2019-01-10T23:18:59.930Z,101299.28
2019-01-10T23:21:29.798Z,101295.64
2019-01-10T23:24:10.084Z,101289.08
2019-01-10T23:26:38.062Z,101288.74
2019-01-10T23:29:06.941Z,101287.47
2019-01-10T23:31:34.841Z,101283.20
2019-01-10T23:34:10.305Z,101285.86
2019-01-10T23:36:38.155Z,101277.27
2019-01-10T23:39:20.241Z,101280.25
2019-01-10T23:41:49.284Z,101280.45
2019-01-10T23:44:17.385Z,101270.48
2019-01-10T23:46:45.404Z,101259.98
2019-01-10T23:49:13.377Z,101264.20
2019-01-10T23:51:41.505Z,101263.35
2019-01-10T23:54:09.474Z,101256.98
2019-01-10T23:56:37.381Z,101265.81
2019-01-10T23:59:05.239Z,101261.41
